sensor_id;sensor_type;location;lat;lon;timestamp;temperature;humidity
7212;DHT22;3647;48.792;9.802;2023-10-19T05:17:30;10.00;99.90
7212;DHT22;3647;48.792;9.802;2023-10-19T05:19:57;9.90;99.90
7212;DHT22;3647;48.792;9.802;2023-10-19T05:22:24;9.90;99.90
7212;DHT22;3647;48.792;9.802;2023-10-19T05:24:55;9.90;99.90
7212;DHT22;3647;48.792;9.802;2023-10-19T05:27:21;9.90;99.90
7212;DHT22;3647;48.792;9.802;2023-10-19T05:29:49;9.90;99.90
7212;DHT22;3647;48.792;9.802;2023-10-19T05:32:16;9.90;99.90
7212;DHT22;3647;48.792;9.802;2023-10-19T05:34:45;9.90;99.90
7212;DHT22;3647;48.792;9.802;2023-10-19T05:37:12;9.90;99.90
7212;DHT22;3647;48.792;9.802;2023-10-19T05:39:39;9.90;99.90
7212;DHT22;3647;48.792;9.802;2023-10-19T05:42:06;10.40;99.90
7212;DHT22;3647;48.792;9.802;2023-10-19T05:44:32;10.20;99.90
7212;DHT22;3647;48.792;9.802;2023-10-19T05:47:00;9.90;99.90
7212;DHT22;3647;48.792;9.802;2023-10-19T05:49:27;9.90;99.90
7212;DHT22;3647;48.792;9.802;2023-10-19T05:51:56;9.80;99.90
7212;DHT22;3647;48.792;9.802;2023-10-19T05:54:22;9.90;99.90
7212;DHT22;3647;48.792;9.802;2023-10-19T05:56:50;9.90;99.90
7212;DHT22;3647;48.792;9.802;2023-10-19T05:59:17;9.90;99.90
7212;DHT22;3647;48.792;9.802;2023-10-19T06:01:44;9.90;99.90
7212;DHT22;3647;48.792;9.802;2023-10-19T06:04:12;9.90;99.90
7212;DHT22;3647;48.792;9.802;2023-10-19T06:06:39;9.90;99.90
7212;DHT22;3647;48.792;9.802;2023-10-19T06:09:08;10.90;99.90
7212;DHT22;3647;48.792;9.802;2023-10-19T06:11:35;10.00;99.90
7212;DHT22;3647;48.792;9.802;2023-10-19T06:14:03;9.90;99.90
7212;DHT22;3647;48.792;9.802;2023-10-19T06:16:32;10.00;99.90
7212;DHT22;3647;48.792;9.802;2023-10-19T06:18:59;10.10;99.90
7212;DHT22;3647;48.792;9.802;2023-10-19T06:21:26;10.00;99.90
7212;DHT22;3647;48.792;9.802;2023-10-19T06:23:53;10.00;99.90
7212;DHT22;3647;48.792;9.802;2023-10-19T06:26:21;10.10;99.90
7212;DHT22;3647;48.792;9.802;2023-10-19T06:28:48;11.30;99.90
7212;DHT22;3647;48.792;9.802;2023-10-19T06:31:16;10.10;99.90
7212;DHT22;3647;48.792;9.802;2023-10-19T06:33:44;10.10;99.90
7212;DHT22;3647;48.792;9.802;2023-10-19T06:36:11;10.20;99.90
7212;DHT22;3647;48.792;9.802;2023-10-19T06:38:38;10.20;99.90
7212;DHT22;3647;48.792;9.802;2023-10-19T06:41:14;10.30;99.90
7212;DHT22;3647;48.792;9.802;2023-10-19T06:43:46;10.30;99.90
7212;DHT22;3647;48.792;9.802;2023-10-19T06:46:13;10.20;99.90
7212;DHT22;3647;48.792;9.802;2023-10-19T06:48:40;10.30;99.90
7212;DHT22;3647;48.792;9.802;2023-10-19T06:51:07;10.40;99.90
7212;DHT22;3647;48.792;9.802;2023-10-19T06:53:34;10.40;99.90
7212;DHT22;3647;48.792;9.802;2023-10-19T06:56:01;10.40;99.90
7212;DHT22;3647;48.792;9.802;2023-10-19T06:58:29;10.40;99.90
7212;DHT22;3647;48.792;9.802;2023-10-19T07:00:57;10.50;99.90
7212;DHT22;3647;48.792;9.802;2023-10-19T07:03:30;10.60;99.90
7212;DHT22;3647;48.792;9.802;2023-10-19T07:05:57;10.70;99.90
7212;DHT22;3647;48.792;9.802;2023-10-19T07:08:25;10.60;99.90
7212;DHT22;3647;48.792;9.802;2023-10-19T07:10:52;10.60;99.90
7212;DHT22;3647;48.792;9.802;2023-10-19T07:13:20;10.70;99.90
7212;DHT22;3647;48.792;9.802;2023-10-19T07:15:47;10.70;99.90
7212;DHT22;3647;48.792;9.802;2023-10-19T07:18:15;10.70;99.90
7212;DHT22;3647;48.792;9.802;2023-10-19T07:20:42;10.80;99.90
7212;DHT22;3647;48.792;9.802;2023-10-19T07:23:14;10.90;99.90
7212;DHT22;3647;48.792;9.802;2023-10-19T07:25:45;11.00;99.90
7212;DHT22;3647;48.792;9.802;2023-10-19T07:28:14;11.00;99.90
7212;DHT22;3647;48.792;9.802;2023-10-19T07:30:42;11.20;99.90
7212;DHT22;3647;48.792;9.802;2023-10-19T07:33:09;11.30;99.90
7212;DHT22;3647;48.792;9.802;2023-10-19T07:35:37;11.30;99.90
7212;DHT22;3647;48.792;9.802;2023-10-19T07:38:07;11.40;99.90
7212;DHT22;3647;48.792;9.802;2023-10-19T07:40:35;11.30;99.90
7212;DHT22;3647;48.792;9.802;2023-10-19T07:43:02;11.40;99.90
7212;DHT22;3647;48.792;9.802;2023-10-19T07:45:29;11.40;99.90
7212;DHT22;3647;48.792;9.802;2023-10-19T07:47:57;11.30;99.90
7212;DHT22;3647;48.792;9.802;2023-10-19T07:50:31;11.30;99.90
7212;DHT22;3647;48.792;9.802;2023-10-19T07:53:01;11.30;99.90
7212;DHT22;3647;48.792;9.802;2023-10-19T07:55:28;11.30;99.90
7212;DHT22;3647;48.792;9.802;2023-10-19T07:57:57;11.30;99.90
7212;DHT22;3647;48.792;9.802;2023-10-19T08:00:26;11.30;99.90
7212;DHT22;3647;48.792;9.802;2023-10-19T08:02:55;11.30;99.90
7212;DHT22;3647;48.792;9.802;2023-10-19T08:05:22;11.30;99.90
7212;DHT22;3647;48.792;9.802;2023-10-19T08:07:49;11.40;99.90
7212;DHT22;3647;48.792;9.802;2023-10-19T08:10:18;11.40;99.90
7212;DHT22;3647;48.792;9.802;2023-10-19T08:12:46;11.50;99.90
7212;DHT22;3647;48.792;9.802;2023-10-19T08:15:14;11.60;99.90
7212;DHT22;3647;48.792;9.802;2023-10-19T08:17:42;11.70;99.90
7212;DHT22;3647;48.792;9.802;2023-10-19T08:20:12;11.80;99.90
7212;DHT22;3647;48.792;9.802;2023-10-19T08:22:48;11.90;99.90
7212;DHT22;3647;48.792;9.802;2023-10-19T08:25:16;12.00;99.90
7212;DHT22;3647;48.792;9.802;2023-10-19T08:27:44;12.10;99.90
7212;DHT22;3647;48.792;9.802;2023-10-19T08:30:11;12.20;99.90
7212;DHT22;3647;48.792;9.802;2023-10-19T08:32:39;12.30;99.90
7212;DHT22;3647;48.792;9.802;2023-10-19T08:35:07;12.40;99.90
7212;DHT22;3647;48.792;9.802;2023-10-19T08:37:36;12.50;99.90
7212;DHT22;3647;48.792;9.802;2023-10-19T08:40:06;12.60;99.90
7212;DHT22;3647;48.792;9.802;2023-10-19T08:42:34;12.70;99.90
7212;DHT22;3647;48.792;9.802;2023-10-19T08:45:02;12.80;99.90
7212;DHT22;3647;48.792;9.802;2023-10-19T08:47:34;12.90;99.90
7212;DHT22;3647;48.792;9.802;2023-10-19T08:50:02;13.00;99.90
7212;DHT22;3647;48.792;9.802;2023-10-19T08:52:30;13.10;99.90
7212;DHT22;3647;48.792;9.802;2023-10-19T08:54:58;13.30;99.90
7212;DHT22;3647;48.792;9.802;2023-10-19T08:57:25;13.30;99.90
7212;DHT22;3647;48.792;9.802;2023-10-19T08:59:53;13.30;99.90
7212;DHT22;3647;48.792;9.802;2023-10-19T09:02:23;13.40;99.90
7212;DHT22;3647;48.792;9.802;2023-10-19T09:04:50;13.50;99.90
7212;DHT22;3647;48.792;9.802;2023-10-19T09:07:17;13.50;99.90
7212;DHT22;3647;48.792;9.802;2023-10-19T09:09:45;13.80;99.90
7212;DHT22;3647;48.792;9.802;2023-10-19T09:12:13;13.70;99.90
7212;DHT22;3647;48.792;9.802;2023-10-19T09:14:40;13.80;99.90
7212;DHT22;3647;48.792;9.802;2023-10-19T09:17:10;13.90;99.90
7212;DHT22;3647;48.792;9.802;2023-10-19T09:19:39;14.00;99.90
7212;DHT22;3647;48.792;9.802;2023-10-19T09:22:07;14.10;99.90
7212;DHT22;3647;48.792;9.802;2023-10-19T09:24:44;14.20;99.90
7212;DHT22;3647;48.792;9.802;2023-10-19T09:27:11;14.30;99.90
7212;DHT22;3647;48.792;9.802;2023-10-19T09:29:39;14.40;99.90
7212;DHT22;3647;48.792;9.802;2023-10-19T09:32:07;14.60;99.90
7212;DHT22;3647;48.792;9.802;2023-10-19T09:34:35;14.70;99.90
7212;DHT22;3647;48.792;9.802;2023-10-19T09:37:03;14.80;99.90
7212;DHT22;3647;48.792;9.802;2023-10-19T09:39:31;14.90;99.90
7212;DHT22;3647;48.792;9.802;2023-10-19T09:42:02;15.00;99.90
7212;DHT22;3647;48.792;9.802;2023-10-19T09:44:39;15.10;99.90
7212;DHT22;3647;48.792;9.802;2023-10-19T09:47:10;15.20;99.90
7212;DHT22;3647;48.792;9.802;2023-10-19T09:49:40;15.30;99.90
7212;DHT22;3647;48.792;9.802;2023-10-19T09:52:08;15.30;99.90
7212;DHT22;3647;48.792;9.802;2023-10-19T09:54:47;15.50;99.90
7212;DHT22;3647;48.792;9.802;2023-10-19T09:57:21;15.70;99.90
7212;DHT22;3647;48.792;9.802;2023-10-19T09:59:53;15.90;99.90
7212;DHT22;3647;48.792;9.802;2023-10-19T10:02:23;16.00;99.90
7212;DHT22;3647;48.792;9.802;2023-10-19T10:04:53;16.10;99.90
7212;DHT22;3647;48.792;9.802;2023-10-19T10:07:19;16.20;99.90
7212;DHT22;3647;48.792;9.802;2023-10-19T10:09:48;18.30;99.90
7212;DHT22;3647;48.792;9.802;2023-10-19T10:12:19;16.10;99.90
7212;DHT22;3647;48.792;9.802;2023-10-19T10:14:55;16.20;99.90
7212;DHT22;3647;48.792;9.802;2023-10-19T10:17:24;17.30;99.90
7212;DHT22;3647;48.792;9.802;2023-10-19T10:19:55;16.30;99.90
7212;DHT22;3647;48.792;9.802;2023-10-19T10:22:24;16.40;99.90
7212;DHT22;3647;48.792;9.802;2023-10-19T10:24:54;16.40;99.90
7212;DHT22;3647;48.792;9.802;2023-10-19T10:27:22;16.50;99.90
7212;DHT22;3647;48.792;9.802;2023-10-19T10:29:56;16.40;99.90
7212;DHT22;3647;48.792;9.802;2023-10-19T10:32:44;16.50;99.90
7212;DHT22;3647;48.792;9.802;2023-10-19T10:38:34;16.40;99.90
7212;DHT22;3647;48.792;9.802;2023-10-19T10:41:02;16.40;99.90
7212;DHT22;3647;48.792;9.802;2023-10-19T10:43:29;16.30;99.90
7212;DHT22;3647;48.792;9.802;2023-10-19T10:46:05;16.30;99.90
7212;DHT22;3647;48.792;9.802;2023-10-19T10:48:33;16.20;99.90
7212;DHT22;3647;48.792;9.802;2023-10-19T10:51:01;16.20;99.90
7212;DHT22;3647;48.792;9.802;2023-10-19T10:53:28;16.10;99.90
7212;DHT22;3647;48.792;9.802;2023-10-19T10:56:00;16.10;99.90
7212;DHT22;3647;48.792;9.802;2023-10-19T10:58:26;16.10;99.90
7212;DHT22;3647;48.792;9.802;2023-10-19T11:00:54;16.10;99.90
7212;DHT22;3647;48.792;9.802;2023-10-19T11:03:22;16.20;99.90
7212;DHT22;3647;48.792;9.802;2023-10-19T11:05:49;16.20;99.90
7212;DHT22;3647;48.792;9.802;2023-10-19T11:08:16;16.20;99.90
7212;DHT22;3647;48.792;9.802;2023-10-19T11:10:46;16.40;99.90
7212;DHT22;3647;48.792;9.802;2023-10-19T11:13:16;16.40;99.90
7212;DHT22;3647;48.792;9.802;2023-10-19T11:15:49;16.40;99.90
7212;DHT22;3647;48.792;9.802;2023-10-19T11:18:28;17.50;99.90
7212;DHT22;3647;48.792;9.802;2023-10-19T11:20:55;16.60;99.90
7212;DHT22;3647;48.792;9.802;2023-10-19T11:23:38;16.60;99.90
7212;DHT22;3647;48.792;9.802;2023-10-19T11:26:05;16.60;99.90
7212;DHT22;3647;48.792;9.802;2023-10-19T11:28:33;16.60;99.90
7212;DHT22;3647;48.792;9.802;2023-10-19T11:31:15;16.70;99.90
7212;DHT22;3647;48.792;9.802;2023-10-19T11:33:43;16.70;99.90
7212;DHT22;3647;48.792;9.802;2023-10-19T11:36:10;16.70;99.90
7212;DHT22;3647;48.792;9.802;2023-10-19T11:38:43;16.70;99.90
7212;DHT22;3647;48.792;9.802;2023-10-19T11:41:11;16.80;99.90
7212;DHT22;3647;48.792;9.802;2023-10-19T11:43:44;16.80;99.90
7212;DHT22;3647;48.792;9.802;2023-10-19T11:46:12;17.50;99.90
7212;DHT22;3647;48.792;9.802;2023-10-19T11:48:40;16.80;99.90
7212;DHT22;3647;48.792;9.802;2023-10-19T11:51:08;16.70;99.90
7212;DHT22;3647;48.792;9.802;2023-10-19T11:53:37;16.60;99.90
7212;DHT22;3647;48.792;9.802;2023-10-19T11:56:07;16.60;99.90
7212;DHT22;3647;48.792;9.802;2023-10-19T11:58:35;16.60;99.90
7212;DHT22;3647;48.792;9.802;2023-10-19T12:01:09;16.60;99.90
7212;DHT22;3647;48.792;9.802;2023-10-19T12:03:38;16.50;99.90
7212;DHT22;3647;48.792;9.802;2023-10-19T12:06:12;16.60;99.90
7212;DHT22;3647;48.792;9.802;2023-10-19T12:08:44;16.40;99.90
7212;DHT22;3647;48.792;9.802;2023-10-19T12:11:14;16.50;99.90
7212;DHT22;3647;48.792;9.802;2023-10-19T12:16:18;16.40;99.90
7212;DHT22;3647;48.792;9.802;2023-10-19T12:18:47;16.40;99.90
7212;DHT22;3647;48.792;9.802;2023-10-19T12:21:15;17.30;99.90
7212;DHT22;3647;48.792;9.802;2023-10-19T12:23:44;16.30;99.90
7212;DHT22;3647;48.792;9.802;2023-10-19T12:26:16;15.70;99.90
7212;DHT22;3647;48.792;9.802;2023-10-19T12:28:45;16.90;99.90
7212;DHT22;3647;48.792;9.802;2023-10-19T12:31:13;16.00;99.90
7212;DHT22;3647;48.792;9.802;2023-10-19T12:33:45;14.40;99.90
7212;DHT22;3647;48.792;9.802;2023-10-19T12:36:15;16.30;99.90
7212;DHT22;3647;48.792;9.802;2023-10-19T12:39:00;16.30;99.90
7212;DHT22;3647;48.792;9.802;2023-10-19T12:41:31;16.30;99.90
7212;DHT22;3647;48.792;9.802;2023-10-19T12:43:58;15.40;99.90
7212;DHT22;3647;48.792;9.802;2023-10-19T12:46:34;16.40;99.90
7212;DHT22;3647;48.792;9.802;2023-10-19T12:49:06;16.30;99.90
7212;DHT22;3647;48.792;9.802;2023-10-19T12:51:39;16.30;99.90
7212;DHT22;3647;48.792;9.802;2023-10-19T12:54:07;16.40;99.90
7212;DHT22;3647;48.792;9.802;2023-10-19T12:56:36;17.30;99.90
7212;DHT22;3647;48.792;9.802;2023-10-19T12:59:05;16.20;99.90
7212;DHT22;3647;48.792;9.802;2023-10-19T13:01:35;16.30;99.90
7212;DHT22;3647;48.792;9.802;2023-10-19T13:04:14;16.80;99.90
7212;DHT22;3647;48.792;9.802;2023-10-19T13:06:49;16.50;99.90
7212;DHT22;3647;48.792;9.802;2023-10-19T13:09:23;16.30;99.90
7212;DHT22;3647;48.792;9.802;2023-10-19T13:11:57;16.40;99.90
7212;DHT22;3647;48.792;9.802;2023-10-19T13:14:33;16.30;99.90
7212;DHT22;3647;48.792;9.802;2023-10-19T13:17:02;16.40;99.90
7212;DHT22;3647;48.792;9.802;2023-10-19T13:19:33;16.50;99.90
7212;DHT22;3647;48.792;9.802;2023-10-19T13:22:02;16.50;99.90
7212;DHT22;3647;48.792;9.802;2023-10-19T13:24:33;18.20;99.90
7212;DHT22;3647;48.792;9.802;2023-10-19T17:27:56;14.70;99.90
7212;DHT22;3647;48.792;9.802;2023-10-19T17:30:23;14.70;99.90
7212;DHT22;3647;48.792;9.802;2023-10-19T17:32:50;14.60;99.90
7212;DHT22;3647;48.792;9.802;2023-10-19T17:35:18;14.70;99.90
7212;DHT22;3647;48.792;9.802;2023-10-19T17:37:47;14.60;99.90
7212;DHT22;3647;48.792;9.802;2023-10-19T17:40:13;14.60;99.90
7212;DHT22;3647;48.792;9.802;2023-10-19T17:42:41;14.50;99.90
7212;DHT22;3647;48.792;9.802;2023-10-19T17:45:10;14.50;99.90
7212;DHT22;3647;48.792;9.802;2023-10-19T17:47:37;14.50;99.90
7212;DHT22;3647;48.792;9.802;2023-10-19T17:50:04;14.50;99.90
7212;DHT22;3647;48.792;9.802;2023-10-19T17:52:32;14.50;99.90
7212;DHT22;3647;48.792;9.802;2023-10-19T17:54:59;14.40;99.90
7212;DHT22;3647;48.792;9.802;2023-10-19T17:57:25;14.40;99.90
7212;DHT22;3647;48.792;9.802;2023-10-19T17:59:53;14.40;99.90
7212;DHT22;3647;48.792;9.802;2023-10-19T18:02:21;14.50;99.90
7212;DHT22;3647;48.792;9.802;2023-10-19T18:04:48;14.30;99.90
7212;DHT22;3647;48.792;9.802;2023-10-19T18:07:18;14.20;99.90
7212;DHT22;3647;48.792;9.802;2023-10-19T18:09:45;14.20;99.90
7212;DHT22;3647;48.792;9.802;2023-10-19T18:12:12;14.20;99.90
7212;DHT22;3647;48.792;9.802;2023-10-19T18:14:39;14.20;99.90
7212;DHT22;3647;48.792;9.802;2023-10-19T18:17:06;14.10;99.90
7212;DHT22;3647;48.792;9.802;2023-10-19T18:19:36;14.10;99.90
7212;DHT22;3647;48.792;9.802;2023-10-19T18:22:03;14.10;99.90
7212;DHT22;3647;48.792;9.802;2023-10-19T18:24:30;14.10;99.90
7212;DHT22;3647;48.792;9.802;2023-10-19T18:26:58;14.10;99.90
7212;DHT22;3647;48.792;9.802;2023-10-19T18:29:26;14.10;99.90
7212;DHT22;3647;48.792;9.802;2023-10-19T18:31:53;14.00;99.90
7212;DHT22;3647;48.792;9.802;2023-10-19T18:34:20;14.00;99.90
7212;DHT22;3647;48.792;9.802;2023-10-19T18:36:49;14.00;99.90
7212;DHT22;3647;48.792;9.802;2023-10-19T18:39:16;14.00;99.90
7212;DHT22;3647;48.792;9.802;2023-10-19T18:41:43;13.90;99.90
7212;DHT22;3647;48.792;9.802;2023-10-19T18:44:10;13.90;99.90
7212;DHT22;3647;48.792;9.802;2023-10-19T18:46:37;13.80;99.90
7212;DHT22;3647;48.792;9.802;2023-10-19T18:49:04;13.80;99.90
7212;DHT22;3647;48.792;9.802;2023-10-19T18:51:34;13.80;99.90
7212;DHT22;3647;48.792;9.802;2023-10-19T18:54:02;13.70;99.90
7212;DHT22;3647;48.792;9.802;2023-10-19T18:56:30;13.70;99.90
7212;DHT22;3647;48.792;9.802;2023-10-19T18:58:58;13.70;99.90
7212;DHT22;3647;48.792;9.802;2023-10-19T19:01:26;13.60;99.90
7212;DHT22;3647;48.792;9.802;2023-10-19T19:03:53;14.20;99.90
7212;DHT22;3647;48.792;9.802;2023-10-19T19:06:20;13.60;99.90
7212;DHT22;3647;48.792;9.802;2023-10-19T19:08:47;13.60;99.90
7212;DHT22;3647;48.792;9.802;2023-10-19T19:11:16;13.60;99.90
7212;DHT22;3647;48.792;9.802;2023-10-19T19:13:44;13.50;99.90
7212;DHT22;3647;48.792;9.802;2023-10-19T19:16:12;13.50;99.90
7212;DHT22;3647;48.792;9.802;2023-10-19T19:18:40;13.50;99.90
7212;DHT22;3647;48.792;9.802;2023-10-19T19:21:07;13.50;99.90
7212;DHT22;3647;48.792;9.802;2023-10-19T19:23:34;13.50;99.90
7212;DHT22;3647;48.792;9.802;2023-10-19T19:26:01;13.50;99.90
7212;DHT22;3647;48.792;9.802;2023-10-19T19:28:30;13.50;99.90
7212;DHT22;3647;48.792;9.802;2023-10-19T19:30:58;13.50;99.90
7212;DHT22;3647;48.792;9.802;2023-10-19T19:33:26;13.40;99.90
7212;DHT22;3647;48.792;9.802;2023-10-19T19:35:53;13.50;99.90
7212;DHT22;3647;48.792;9.802;2023-10-19T19:38:21;13.50;99.90
7212;DHT22;3647;48.792;9.802;2023-10-19T19:40:47;13.60;99.90
7212;DHT22;3647;48.792;9.802;2023-10-19T19:43:15;13.50;99.90
7212;DHT22;3647;48.792;9.802;2023-10-19T19:45:43;13.50;99.90
7212;DHT22;3647;48.792;9.802;2023-10-19T19:48:10;13.40;99.90
7212;DHT22;3647;48.792;9.802;2023-10-19T19:50:37;13.50;99.90
7212;DHT22;3647;48.792;9.802;2023-10-19T19:53:07;13.40;99.90
7212;DHT22;3647;48.792;9.802;2023-10-19T19:55:35;13.50;99.90
7212;DHT22;3647;48.792;9.802;2023-10-19T19:58:02;13.50;99.90
7212;DHT22;3647;48.792;9.802;2023-10-19T20:00:30;13.50;99.90
7212;DHT22;3647;48.792;9.802;2023-10-19T20:02:58;13.50;99.90
7212;DHT22;3647;48.792;9.802;2023-10-19T20:05:26;13.50;99.90
7212;DHT22;3647;48.792;9.802;2023-10-19T20:07:55;13.50;99.90
7212;DHT22;3647;48.792;9.802;2023-10-19T20:10:22;13.50;99.90
7212;DHT22;3647;48.792;9.802;2023-10-19T20:12:50;13.40;99.90
7212;DHT22;3647;48.792;9.802;2023-10-19T20:15:16;13.50;99.90
7212;DHT22;3647;48.792;9.802;2023-10-19T20:17:43;13.40;99.90
7212;DHT22;3647;48.792;9.802;2023-10-19T20:20:11;13.40;99.90
7212;DHT22;3647;48.792;9.802;2023-10-19T20:22:38;13.40;99.90
7212;DHT22;3647;48.792;9.802;2023-10-19T20:25:07;13.40;99.90
7212;DHT22;3647;48.792;9.802;2023-10-19T20:27:37;13.40;99.90
7212;DHT22;3647;48.792;9.802;2023-10-19T20:30:05;13.40;99.90
7212;DHT22;3647;48.792;9.802;2023-10-19T20:32:32;13.40;99.90
7212;DHT22;3647;48.792;9.802;2023-10-19T20:35:00;13.40;99.90
7212;DHT22;3647;48.792;9.802;2023-10-19T20:37:28;13.40;99.90
7212;DHT22;3647;48.792;9.802;2023-10-19T20:39:54;13.40;99.90
7212;DHT22;3647;48.792;9.802;2023-10-19T20:42:23;13.40;99.90
7212;DHT22;3647;48.792;9.802;2023-10-19T20:44:50;13.40;99.90
7212;DHT22;3647;48.792;9.802;2023-10-19T20:47:18;13.40;99.90
7212;DHT22;3647;48.792;9.802;2023-10-19T20:49:44;13.40;99.90
7212;DHT22;3647;48.792;9.802;2023-10-19T20:52:11;13.40;99.90
7212;DHT22;3647;48.792;9.802;2023-10-19T20:54:40;13.40;99.90
7212;DHT22;3647;48.792;9.802;2023-10-19T20:57:07;13.40;99.90
7212;DHT22;3647;48.792;9.802;2023-10-19T20:59:33;13.40;99.90
7212;DHT22;3647;48.792;9.802;2023-10-19T21:02:00;13.40;99.90
7212;DHT22;3647;48.792;9.802;2023-10-19T21:04:28;13.40;99.90
7212;DHT22;3647;48.792;9.802;2023-10-19T21:06:55;13.30;99.90
7212;DHT22;3647;48.792;9.802;2023-10-19T21:09:22;13.40;99.90
7212;DHT22;3647;48.792;9.802;2023-10-19T21:11:50;13.40;99.90
7212;DHT22;3647;48.792;9.802;2023-10-19T21:14:17;13.30;99.90
7212;DHT22;3647;48.792;9.802;2023-10-19T21:16:44;13.60;99.90
7212;DHT22;3647;48.792;9.802;2023-10-19T21:19:11;13.30;99.90
7212;DHT22;3647;48.792;9.802;2023-10-19T21:21:37;13.30;99.90
7212;DHT22;3647;48.792;9.802;2023-10-19T21:24:05;13.20;99.90
7212;DHT22;3647;48.792;9.802;2023-10-19T21:26:32;13.20;99.90
